sensor_id;sensor_type;location;lat;lon;timestamp;P1;durP1;ratioP1;P2;durP2;ratioP2
5052;SDS011;2545;50.892;5.740;2022-10-16T00:01:57;6.47;;;3.00;;
5052;SDS011;2545;50.892;5.740;2022-10-16T00:04:23;3.77;;;2.53;;
5052;SDS011;2545;50.892;5.740;2022-10-16T00:06:48;6.80;;;2.70;;
5052;SDS011;2545;50.892;5.740;2022-10-16T00:09:13;5.97;;;2.20;;
5052;SDS011;2545;50.892;5.740;2022-10-16T00:11:39;3.93;;;2.30;;
5052;SDS011;2545;50.892;5.740;2022-10-16T00:14:07;3.40;;;2.60;;
5052;SDS011;2545;50.892;5.740;2022-10-16T00:16:35;12.53;;;3.13;;
5052;SDS011;2545;50.892;5.740;2022-10-16T00:19:00;5.70;;;2.50;;
5052;SDS011;2545;50.892;5.740;2022-10-16T00:21:27;7.47;;;2.60;;
5052;SDS011;2545;50.892;5.740;2022-10-16T00:23:55;13.13;;;3.30;;
5052;SDS011;2545;50.892;5.740;2022-10-16T00:26:22;3.20;;;2.30;;
5052;SDS011;2545;50.892;5.740;2022-10-16T00:28:48;6.23;;;2.23;;
5052;SDS011;2545;50.892;5.740;2022-10-16T00:31:15;7.77;;;3.17;;
5052;SDS011;2545;50.892;5.740;2022-10-16T00:33:42;4.30;;;2.50;;
5052;SDS011;2545;50.892;5.740;2022-10-16T00:36:09;6.93;;;3.03;;
5052;SDS011;2545;50.892;5.740;2022-10-16T00:38:37;5.23;;;2.43;;
5052;SDS011;2545;50.892;5.740;2022-10-16T00:41:04;4.40;;;2.50;;
5052;SDS011;2545;50.892;5.740;2022-10-16T00:43:43;6.37;;;2.40;;
5052;SDS011;2545;50.892;5.740;2022-10-16T00:46:26;5.33;;;2.60;;
5052;SDS011;2545;50.892;5.740;2022-10-16T00:48:58;4.93;;;2.03;;
5052;SDS011;2545;50.892;5.740;2022-10-16T00:51:30;8.03;;;2.80;;
5052;SDS011;2545;50.892;5.740;2022-10-16T00:53:59;4.00;;;2.80;;
5052;SDS011;2545;50.892;5.740;2022-10-16T00:56:27;5.13;;;2.63;;
5052;SDS011;2545;50.892;5.740;2022-10-16T00:58:53;4.03;;;2.40;;
5052;SDS011;2545;50.892;5.740;2022-10-16T01:01:18;2.80;;;2.20;;
5052;SDS011;2545;50.892;5.740;2022-10-16T01:03:44;14.13;;;2.53;;
5052;SDS011;2545;50.892;5.740;2022-10-16T01:06:21;3.73;;;2.60;;
5052;SDS011;2545;50.892;5.740;2022-10-16T01:09:05;6.23;;;2.30;;
5052;SDS011;2545;50.892;5.740;2022-10-16T01:12:26;3.53;;;2.10;;
5052;SDS011;2545;50.892;5.740;2022-10-16T01:17:24;6.87;;;2.50;;
5052;SDS011;2545;50.892;5.740;2022-10-16T01:20:02;6.30;;;2.07;;
5052;SDS011;2545;50.892;5.740;2022-10-16T01:25:35;5.00;;;2.40;;
5052;SDS011;2545;50.892;5.740;2022-10-16T01:28:12;3.97;;;2.00;;
5052;SDS011;2545;50.892;5.740;2022-10-16T01:30:40;7.13;;;2.23;;
5052;SDS011;2545;50.892;5.740;2022-10-16T01:33:10;8.03;;;2.50;;
5052;SDS011;2545;50.892;5.740;2022-10-16T01:35:36;4.93;;;2.00;;
5052;SDS011;2545;50.892;5.740;2022-10-16T01:38:07;11.20;;;2.50;;
5052;SDS011;2545;50.892;5.740;2022-10-16T01:40:38;7.30;;;2.30;;
5052;SDS011;2545;50.892;5.740;2022-10-16T01:43:10;5.60;;;1.93;;
5052;SDS011;2545;50.892;5.740;2022-10-16T01:45:39;7.67;;;2.40;;
5052;SDS011;2545;50.892;5.740;2022-10-16T01:48:07;3.17;;;2.30;;
5052;SDS011;2545;50.892;5.740;2022-10-16T01:50:38;3.40;;;1.90;;
5052;SDS011;2545;50.892;5.740;2022-10-16T01:53:07;3.80;;;1.90;;
5052;SDS011;2545;50.892;5.740;2022-10-16T01:55:37;3.30;;;2.20;;
5052;SDS011;2545;50.892;5.740;2022-10-16T01:58:10;4.63;;;2.47;;
5052;SDS011;2545;50.892;5.740;2022-10-16T02:00:39;2.73;;;2.47;;
5052;SDS011;2545;50.892;5.740;2022-10-16T02:03:08;2.33;;;1.87;;
5052;SDS011;2545;50.892;5.740;2022-10-16T02:08:31;2.30;;;2.10;;
5052;SDS011;2545;50.892;5.740;2022-10-16T02:10:58;5.20;;;2.33;;
5052;SDS011;2545;50.892;5.740;2022-10-16T02:13:33;8.57;;;2.00;;
5052;SDS011;2545;50.892;5.740;2022-10-16T02:16:05;1.50;;;1.40;;
5052;SDS011;2545;50.892;5.740;2022-10-16T02:18:31;8.57;;;2.07;;
5052;SDS011;2545;50.892;5.740;2022-10-16T02:26:12;3.70;;;2.27;;
5052;SDS011;2545;50.892;5.740;2022-10-16T02:28:42;5.47;;;2.17;;
5052;SDS011;2545;50.892;5.740;2022-10-16T02:31:12;2.20;;;2.00;;
5052;SDS011;2545;50.892;5.740;2022-10-16T02:33:41;7.00;;;2.37;;
5052;SDS011;2545;50.892;5.740;2022-10-16T02:36:08;3.57;;;2.30;;
5052;SDS011;2545;50.892;5.740;2022-10-16T02:38:35;6.63;;;1.97;;
5052;SDS011;2545;50.892;5.740;2022-10-16T02:41:01;2.13;;;1.93;;
5052;SDS011;2545;50.892;5.740;2022-10-16T02:43:26;2.90;;;1.93;;
5052;SDS011;2545;50.892;5.740;2022-10-16T02:45:52;2.30;;;1.93;;
5052;SDS011;2545;50.892;5.740;2022-10-16T02:48:17;6.63;;;2.30;;
5052;SDS011;2545;50.892;5.740;2022-10-16T02:50:42;3.00;;;2.00;;
5052;SDS011;2545;50.892;5.740;2022-10-16T02:53:08;6.60;;;2.60;;
5052;SDS011;2545;50.892;5.740;2022-10-16T02:55:33;2.93;;;1.90;;
5052;SDS011;2545;50.892;5.740;2022-10-16T02:57:58;3.90;;;2.40;;
5052;SDS011;2545;50.892;5.740;2022-10-16T03:00:23;5.00;;;2.00;;
5052;SDS011;2545;50.892;5.740;2022-10-16T03:02:49;6.10;;;2.20;;
5052;SDS011;2545;50.892;5.740;2022-10-16T03:05:15;2.17;;;1.90;;
5052;SDS011;2545;50.892;5.740;2022-10-16T03:07:40;3.37;;;1.57;;
5052;SDS011;2545;50.892;5.740;2022-10-16T03:10:05;4.90;;;2.50;;
5052;SDS011;2545;50.892;5.740;2022-10-16T03:12:31;11.30;;;2.17;;
5052;SDS011;2545;50.892;5.740;2022-10-16T03:14:57;7.20;;;2.50;;
5052;SDS011;2545;50.892;5.740;2022-10-16T03:17:23;4.47;;;2.00;;
5052;SDS011;2545;50.892;5.740;2022-10-16T03:19:49;12.10;;;3.60;;
5052;SDS011;2545;50.892;5.740;2022-10-16T03:22:14;6.20;;;2.10;;
5052;SDS011;2545;50.892;5.740;2022-10-16T03:24:40;4.13;;;2.20;;
5052;SDS011;2545;50.892;5.740;2022-10-16T03:27:05;5.10;;;2.00;;
5052;SDS011;2545;50.892;5.740;2022-10-16T03:29:31;8.90;;;2.27;;
5052;SDS011;2545;50.892;5.740;2022-10-16T03:31:57;10.83;;;2.50;;
5052;SDS011;2545;50.892;5.740;2022-10-16T03:34:23;10.33;;;1.83;;
5052;SDS011;2545;50.892;5.740;2022-10-16T03:36:49;5.20;;;2.50;;
5052;SDS011;2545;50.892;5.740;2022-10-16T03:39:14;7.10;;;2.43;;
5052;SDS011;2545;50.892;5.740;2022-10-16T03:41:40;5.60;;;2.10;;
5052;SDS011;2545;50.892;5.740;2022-10-16T03:44:05;5.83;;;2.10;;
5052;SDS011;2545;50.892;5.740;2022-10-16T03:46:31;4.90;;;2.20;;
5052;SDS011;2545;50.892;5.740;2022-10-16T03:48:56;4.10;;;2.30;;
5052;SDS011;2545;50.892;5.740;2022-10-16T03:51:21;4.47;;;2.43;;
5052;SDS011;2545;50.892;5.740;2022-10-16T03:53:46;3.20;;;2.70;;
5052;SDS011;2545;50.892;5.740;2022-10-16T03:56:12;6.83;;;2.27;;
5052;SDS011;2545;50.892;5.740;2022-10-16T03:58:37;4.10;;;3.10;;
5052;SDS011;2545;50.892;5.740;2022-10-16T04:01:02;4.10;;;2.33;;
5052;SDS011;2545;50.892;5.740;2022-10-16T04:03:28;6.67;;;3.30;;
5052;SDS011;2545;50.892;5.740;2022-10-16T04:05:53;11.23;;;2.60;;
5052;SDS011;2545;50.892;5.740;2022-10-16T04:08:19;4.70;;;2.30;;
5052;SDS011;2545;50.892;5.740;2022-10-16T04:10:44;7.00;;;3.80;;
5052;SDS011;2545;50.892;5.740;2022-10-16T04:13:11;4.27;;;2.60;;
5052;SDS011;2545;50.892;5.740;2022-10-16T04:15:36;4.63;;;2.50;;
5052;SDS011;2545;50.892;5.740;2022-10-16T04:18:02;4.83;;;2.47;;
5052;SDS011;2545;50.892;5.740;2022-10-16T04:20:28;3.27;;;2.30;;
5052;SDS011;2545;50.892;5.740;2022-10-16T04:22:53;4.63;;;2.50;;
5052;SDS011;2545;50.892;5.740;2022-10-16T04:25:19;3.90;;;2.60;;
5052;SDS011;2545;50.892;5.740;2022-10-16T04:27:44;8.63;;;2.60;;
5052;SDS011;2545;50.892;5.740;2022-10-16T04:30:09;4.53;;;2.53;;
5052;SDS011;2545;50.892;5.740;2022-10-16T04:32:35;3.90;;;2.60;;
5052;SDS011;2545;50.892;5.740;2022-10-16T04:35:00;10.03;;;2.53;;
5052;SDS011;2545;50.892;5.740;2022-10-16T04:37:26;7.57;;;2.63;;
5052;SDS011;2545;50.892;5.740;2022-10-16T04:39:52;4.07;;;2.77;;
5052;SDS011;2545;50.892;5.740;2022-10-16T04:42:19;3.23;;;2.17;;
5052;SDS011;2545;50.892;5.740;2022-10-16T04:44:45;8.67;;;2.50;;
5052;SDS011;2545;50.892;5.740;2022-10-16T04:47:10;5.30;;;2.60;;
5052;SDS011;2545;50.892;5.740;2022-10-16T04:49:36;4.30;;;2.30;;
5052;SDS011;2545;50.892;5.740;2022-10-16T04:52:01;2.70;;;1.97;;
5052;SDS011;2545;50.892;5.740;2022-10-16T04:54:26;6.63;;;2.80;;
5052;SDS011;2545;50.892;5.740;2022-10-16T04:56:52;4.83;;;2.80;;
5052;SDS011;2545;50.892;5.740;2022-10-16T04:59:18;4.97;;;2.90;;
5052;SDS011;2545;50.892;5.740;2022-10-16T05:01:44;3.97;;;2.47;;
5052;SDS011;2545;50.892;5.740;2022-10-16T05:04:10;11.43;;;2.90;;
5052;SDS011;2545;50.892;5.740;2022-10-16T05:06:36;3.10;;;2.80;;
5052;SDS011;2545;50.892;5.740;2022-10-16T05:09:03;6.40;;;2.90;;
5052;SDS011;2545;50.892;5.740;2022-10-16T05:11:29;7.73;;;3.00;;
5052;SDS011;2545;50.892;5.740;2022-10-16T05:13:55;4.43;;;2.90;;
5052;SDS011;2545;50.892;5.740;2022-10-16T05:16:20;3.40;;;3.10;;
5052;SDS011;2545;50.892;5.740;2022-10-16T05:18:45;4.50;;;2.80;;
5052;SDS011;2545;50.892;5.740;2022-10-16T05:21:10;3.30;;;3.00;;
5052;SDS011;2545;50.892;5.740;2022-10-16T05:23:36;11.37;;;3.43;;
5052;SDS011;2545;50.892;5.740;2022-10-16T05:26:01;5.93;;;3.00;;
5052;SDS011;2545;50.892;5.740;2022-10-16T05:28:27;4.03;;;2.70;;
5052;SDS011;2545;50.892;5.740;2022-10-16T05:30:53;4.90;;;3.10;;
5052;SDS011;2545;50.892;5.740;2022-10-16T05:33:20;4.13;;;3.20;;
5052;SDS011;2545;50.892;5.740;2022-10-16T05:35:46;8.87;;;3.00;;
5052;SDS011;2545;50.892;5.740;2022-10-16T05:38:11;6.40;;;3.70;;
5052;SDS011;2545;50.892;5.740;2022-10-16T05:40:36;4.50;;;2.87;;
5052;SDS011;2545;50.892;5.740;2022-10-16T05:43:02;6.33;;;3.47;;
5052;SDS011;2545;50.892;5.740;2022-10-16T05:45:27;4.03;;;3.00;;
5052;SDS011;2545;50.892;5.740;2022-10-16T05:47:52;8.03;;;3.40;;
5052;SDS011;2545;50.892;5.740;2022-10-16T05:50:18;6.63;;;3.67;;
5052;SDS011;2545;50.892;5.740;2022-10-16T05:52:43;3.77;;;2.97;;
5052;SDS011;2545;50.892;5.740;2022-10-16T05:55:08;6.43;;;3.57;;
5052;SDS011;2545;50.892;5.740;2022-10-16T05:57:34;8.17;;;4.10;;
5052;SDS011;2545;50.892;5.740;2022-10-16T05:59:59;12.40;;;3.70;;
5052;SDS011;2545;50.892;5.740;2022-10-16T06:02:24;8.73;;;3.80;;
5052;SDS011;2545;50.892;5.740;2022-10-16T06:04:51;4.03;;;3.47;;
5052;SDS011;2545;50.892;5.740;2022-10-16T06:07:18;5.10;;;3.17;;
5052;SDS011;2545;50.892;5.740;2022-10-16T06:09:43;5.63;;;3.70;;
5052;SDS011;2545;50.892;5.740;2022-10-16T06:12:09;6.90;;;3.50;;
5052;SDS011;2545;50.892;5.740;2022-10-16T06:14:34;6.77;;;3.50;;
5052;SDS011;2545;50.892;5.740;2022-10-16T06:16:59;7.17;;;4.03;;
5052;SDS011;2545;50.892;5.740;2022-10-16T06:19:25;5.40;;;3.30;;
5052;SDS011;2545;50.892;5.740;2022-10-16T06:21:50;16.63;;;3.47;;
5052;SDS011;2545;50.892;5.740;2022-10-16T06:24:15;9.60;;;3.40;;
5052;SDS011;2545;50.892;5.740;2022-10-16T06:26:41;6.67;;;3.10;;
5052;SDS011;2545;50.892;5.740;2022-10-16T06:29:06;7.47;;;4.30;;
5052;SDS011;2545;50.892;5.740;2022-10-16T06:31:31;8.70;;;3.97;;
5052;SDS011;2545;50.892;5.740;2022-10-16T06:33:58;6.57;;;3.63;;
5052;SDS011;2545;50.892;5.740;2022-10-16T06:36:24;9.43;;;3.63;;
5052;SDS011;2545;50.892;5.740;2022-10-16T06:38:50;3.90;;;3.40;;
5052;SDS011;2545;50.892;5.740;2022-10-16T06:41:18;5.50;;;3.40;;
5052;SDS011;2545;50.892;5.740;2022-10-16T06:43:44;7.20;;;3.60;;
5052;SDS011;2545;50.892;5.740;2022-10-16T06:46:11;5.03;;;3.83;;
5052;SDS011;2545;50.892;5.740;2022-10-16T06:48:38;3.83;;;3.30;;
5052;SDS011;2545;50.892;5.740;2022-10-16T06:51:08;12.60;;;5.03;;
5052;SDS011;2545;50.892;5.740;2022-10-16T06:53:36;6.50;;;4.00;;
5052;SDS011;2545;50.892;5.740;2022-10-16T06:56:07;5.83;;;3.90;;
5052;SDS011;2545;50.892;5.740;2022-10-16T06:58:37;4.70;;;3.77;;
5052;SDS011;2545;50.892;5.740;2022-10-16T07:01:03;8.50;;;3.70;;
5052;SDS011;2545;50.892;5.740;2022-10-16T07:03:29;14.47;;;4.63;;
5052;SDS011;2545;50.892;5.740;2022-10-16T07:05:54;6.67;;;4.40;;
5052;SDS011;2545;50.892;5.740;2022-10-16T07:08:19;4.70;;;3.30;;
5052;SDS011;2545;50.892;5.740;2022-10-16T07:10:45;11.53;;;4.73;;
5052;SDS011;2545;50.892;5.740;2022-10-16T07:13:10;5.43;;;3.77;;
5052;SDS011;2545;50.892;5.740;2022-10-16T07:15:38;10.87;;;3.40;;
5052;SDS011;2545;50.892;5.740;2022-10-16T07:18:04;4.80;;;3.80;;
5052;SDS011;2545;50.892;5.740;2022-10-16T07:20:29;12.27;;;4.27;;
5052;SDS011;2545;50.892;5.740;2022-10-16T07:22:54;6.63;;;4.00;;
5052;SDS011;2545;50.892;5.740;2022-10-16T07:25:20;5.83;;;4.07;;
5052;SDS011;2545;50.892;5.740;2022-10-16T07:27:45;6.73;;;3.50;;
5052;SDS011;2545;50.892;5.740;2022-10-16T07:30:10;8.47;;;3.70;;
5052;SDS011;2545;50.892;5.740;2022-10-16T07:32:36;7.20;;;3.30;;
5052;SDS011;2545;50.892;5.740;2022-10-16T07:35:01;7.63;;;3.70;;
5052;SDS011;2545;50.892;5.740;2022-10-16T07:37:26;6.80;;;3.13;;
5052;SDS011;2545;50.892;5.740;2022-10-16T07:39:52;4.83;;;3.17;;
5052;SDS011;2545;50.892;5.740;2022-10-16T07:42:17;9.90;;;3.50;;
5052;SDS011;2545;50.892;5.740;2022-10-16T07:44:42;5.07;;;3.30;;
5052;SDS011;2545;50.892;5.740;2022-10-16T07:47:09;3.83;;;3.20;;
5052;SDS011;2545;50.892;5.740;2022-10-16T07:49:34;5.50;;;2.80;;
5052;SDS011;2545;50.892;5.740;2022-10-16T07:51:59;5.63;;;3.07;;
5052;SDS011;2545;50.892;5.740;2022-10-16T07:54:25;3.40;;;2.70;;
5052;SDS011;2545;50.892;5.740;2022-10-16T07:56:50;12.37;;;3.67;;
5052;SDS011;2545;50.892;5.740;2022-10-16T07:59:15;13.60;;;3.23;;
5052;SDS011;2545;50.892;5.740;2022-10-16T08:01:40;2.80;;;2.50;;
5052;SDS011;2545;50.892;5.740;2022-10-16T08:04:07;7.23;;;2.20;;
5052;SDS011;2545;50.892;5.740;2022-10-16T08:06:37;3.50;;;2.40;;
5052;SDS011;2545;50.892;5.740;2022-10-16T08:09:04;6.37;;;2.50;;
5052;SDS011;2545;50.892;5.740;2022-10-16T08:11:30;4.37;;;1.73;;
5052;SDS011;2545;50.892;5.740;2022-10-16T08:13:56;8.47;;;2.70;;
5052;SDS011;2545;50.892;5.740;2022-10-16T08:16:21;7.30;;;2.20;;
5052;SDS011;2545;50.892;5.740;2022-10-16T08:18:47;4.27;;;2.10;;
5052;SDS011;2545;50.892;5.740;2022-10-16T08:21:13;6.60;;;2.10;;
5052;SDS011;2545;50.892;5.740;2022-10-16T08:23:41;5.63;;;1.80;;
5052;SDS011;2545;50.892;5.740;2022-10-16T08:26:07;15.83;;;3.00;;
5052;SDS011;2545;50.892;5.740;2022-10-16T08:28:33;7.43;;;2.57;;
5052;SDS011;2545;50.892;5.740;2022-10-16T08:31:09;1.97;;;1.50;;
5052;SDS011;2545;50.892;5.740;2022-10-16T08:33:37;2.60;;;1.60;;
5052;SDS011;2545;50.892;5.740;2022-10-16T08:36:04;3.30;;;1.70;;
5052;SDS011;2545;50.892;5.740;2022-10-16T08:38:30;4.23;;;1.47;;
5052;SDS011;2545;50.892;5.740;2022-10-16T08:41:09;6.93;;;1.63;;
5052;SDS011;2545;50.892;5.740;2022-10-16T08:47:02;5.63;;;1.90;;
5052;SDS011;2545;50.892;5.740;2022-10-16T08:52:18;4.63;;;1.60;;
5052;SDS011;2545;50.892;5.740;2022-10-16T08:54:45;10.83;;;2.40;;
5052;SDS011;2545;50.892;5.740;2022-10-16T08:57:21;4.27;;;1.90;;
5052;SDS011;2545;50.892;5.740;2022-10-16T08:59:48;4.60;;;1.60;;
5052;SDS011;2545;50.892;5.740;2022-10-16T09:02:24;3.33;;;1.70;;
5052;SDS011;2545;50.892;5.740;2022-10-16T09:07:38;2.63;;;1.60;;
5052;SDS011;2545;50.892;5.740;2022-10-16T09:21:59;6.30;;;1.60;;
5052;SDS011;2545;50.892;5.740;2022-10-16T09:24:35;5.60;;;1.40;;
5052;SDS011;2545;50.892;5.740;2022-10-16T09:27:01;4.17;;;1.60;;
5052;SDS011;2545;50.892;5.740;2022-10-16T09:29:26;5.60;;;2.03;;
5052;SDS011;2545;50.892;5.740;2022-10-16T09:31:52;5.23;;;1.50;;
5052;SDS011;2545;50.892;5.740;2022-10-16T09:34:35;4.80;;;2.03;;
5052;SDS011;2545;50.892;5.740;2022-10-16T09:37:05;4.03;;;1.30;;
5052;SDS011;2545;50.892;5.740;2022-10-16T09:39:44;4.47;;;2.00;;
5052;SDS011;2545;50.892;5.740;2022-10-16T09:42:21;4.30;;;1.77;;
5052;SDS011;2545;50.892;5.740;2022-10-16T09:44:51;3.57;;;1.40;;
5052;SDS011;2545;50.892;5.740;2022-10-16T09:47:19;4.50;;;1.67;;
5052;SDS011;2545;50.892;5.740;2022-10-16T09:50:19;3.50;;;1.60;;
5052;SDS011;2545;50.892;5.740;2022-10-16T09:53:05;5.13;;;1.67;;
5052;SDS011;2545;50.892;5.740;2022-10-16T09:55:35;3.00;;;1.13;;
5052;SDS011;2545;50.892;5.740;2022-10-16T09:58:00;3.23;;;1.60;;
5052;SDS011;2545;50.892;5.740;2022-10-16T10:00:26;5.43;;;1.30;;
5052;SDS011;2545;50.892;5.740;2022-10-16T10:02:52;4.20;;;1.43;;
5052;SDS011;2545;50.892;5.740;2022-10-16T10:05:26;6.43;;;1.40;;
5052;SDS011;2545;50.892;5.740;2022-10-16T10:07:57;6.57;;;1.43;;
5052;SDS011;2545;50.892;5.740;2022-10-16T10:10:26;3.43;;;1.70;;
5052;SDS011;2545;50.892;5.740;2022-10-16T10:12:53;5.87;;;1.47;;
5052;SDS011;2545;50.892;5.740;2022-10-16T10:15:19;4.00;;;1.43;;
5052;SDS011;2545;50.892;5.740;2022-10-16T10:17:48;2.37;;;1.27;;
5052;SDS011;2545;50.892;5.740;2022-10-16T10:20:21;10.23;;;1.30;;
5052;SDS011;2545;50.892;5.740;2022-10-16T10:22:56;6.93;;;1.70;;
5052;SDS011;2545;50.892;5.740;2022-10-16T10:25:26;4.20;;;1.47;;
5052;SDS011;2545;50.892;5.740;2022-10-16T10:33:52;5.17;;;1.53;;
5052;SDS011;2545;50.892;5.740;2022-10-16T10:36:37;3.50;;;1.53;;
5052;SDS011;2545;50.892;5.740;2022-10-16T10:50:14;6.97;;;1.60;;
5052;SDS011;2545;50.892;5.740;2022-10-16T10:53:06;2.07;;;1.20;;
5052;SDS011;2545;50.892;5.740;2022-10-16T10:55:36;8.33;;;1.73;;
5052;SDS011;2545;50.892;5.740;2022-10-16T11:01:12;3.43;;;1.30;;
5052;SDS011;2545;50.892;5.740;2022-10-16T11:06:42;3.33;;;1.67;;
5052;SDS011;2545;50.892;5.740;2022-10-16T11:12:19;3.10;;;1.27;;
5052;SDS011;2545;50.892;5.740;2022-10-16T11:14:55;4.97;;;1.60;;
5052;SDS011;2545;50.892;5.740;2022-10-16T11:17:28;10.30;;;1.63;;
5052;SDS011;2545;50.892;5.740;2022-10-16T11:20:11;2.60;;;1.20;;
5052;SDS011;2545;50.892;5.740;2022-10-16T11:22:58;4.27;;;1.50;;
5052;SDS011;2545;50.892;5.740;2022-10-16T11:25:30;1.90;;;1.30;;
5052;SDS011;2545;50.892;5.740;2022-10-16T11:30:35;7.97;;;1.80;;
5052;SDS011;2545;50.892;5.740;2022-10-16T11:38:54;1.73;;;1.20;;
5052;SDS011;2545;50.892;5.740;2022-10-16T11:41:04;4.27;;;1.50;;
5052;SDS011;2545;50.892;5.740;2022-10-16T11:43:46;2.27;;;1.20;;
5052;SDS011;2545;50.892;5.740;2022-10-16T11:46:19;5.40;;;1.40;;
5052;SDS011;2545;50.892;5.740;2022-10-16T11:48:49;2.67;;;1.30;;
5052;SDS011;2545;50.892;5.740;2022-10-16T11:51:33;4.50;;;1.53;;
5052;SDS011;2545;50.892;5.740;2022-10-16T11:54:07;2.40;;;1.20;;
5052;SDS011;2545;50.892;5.740;2022-10-16T11:56:35;5.80;;;1.20;;
5052;SDS011;2545;50.892;5.740;2022-10-16T12:01:51;2.57;;;1.40;;
5052;SDS011;2545;50.892;5.740;2022-10-16T12:04:29;12.43;;;1.53;;
5052;SDS011;2545;50.892;5.740;2022-10-16T12:07:02;14.00;;;3.23;;
5052;SDS011;2545;50.892;5.740;2022-10-16T12:09:30;2.00;;;1.20;;
5052;SDS011;2545;50.892;5.740;2022-10-16T12:11:59;5.00;;;2.00;;
5052;SDS011;2545;50.892;5.740;2022-10-16T12:16:59;4.67;;;1.30;;
5052;SDS011;2545;50.892;5.740;2022-10-16T12:19:28;4.83;;;1.70;;
5052;SDS011;2545;50.892;5.740;2022-10-16T12:21:56;3.50;;;1.40;;
5052;SDS011;2545;50.892;5.740;2022-10-16T12:24:35;3.50;;;1.47;;
5052;SDS011;2545;50.892;5.740;2022-10-16T12:27:04;5.17;;;1.50;;
5052;SDS011;2545;50.892;5.740;2022-10-16T12:31:59;1.50;;;1.00;;
5052;SDS011;2545;50.892;5.740;2022-10-16T12:34:30;2.03;;;1.47;;
5052;SDS011;2545;50.892;5.740;2022-10-16T12:37:10;3.33;;;1.23;;
5052;SDS011;2545;50.892;5.740;2022-10-16T12:39:39;5.03;;;1.50;;
5052;SDS011;2545;50.892;5.740;2022-10-16T12:42:18;3.20;;;1.27;;
5052;SDS011;2545;50.892;5.740;2022-10-16T12:44:44;2.03;;;1.33;;
5052;SDS011;2545;50.892;5.740;2022-10-16T12:47:18;3.47;;;1.23;;
5052;SDS011;2545;50.892;5.740;2022-10-16T12:49:51;2.33;;;1.20;;
5052;SDS011;2545;50.892;5.740;2022-10-16T12:55:02;3.53;;;1.20;;
5052;SDS011;2545;50.892;5.740;2022-10-16T13:03:36;2.07;;;1.30;;
5052;SDS011;2545;50.892;5.740;2022-10-16T13:14:53;4.90;;;1.27;;
5052;SDS011;2545;50.892;5.740;2022-10-16T13:17:50;11.50;;;1.73;;
5052;SDS011;2545;50.892;5.740;2022-10-16T13:20:46;2.40;;;1.10;;
5052;SDS011;2545;50.892;5.740;2022-10-16T13:26:05;4.50;;;1.43;;
5052;SDS011;2545;50.892;5.740;2022-10-16T13:28:44;2.23;;;1.60;;
5052;SDS011;2545;50.892;5.740;2022-10-16T13:31:13;4.67;;;1.50;;
5052;SDS011;2545;50.892;5.740;2022-10-16T13:33:43;2.80;;;1.40;;
5052;SDS011;2545;50.892;5.740;2022-10-16T13:36:23;2.77;;;1.40;;
5052;SDS011;2545;50.892;5.740;2022-10-16T13:39:50;3.63;;;1.43;;
5052;SDS011;2545;50.892;5.740;2022-10-16T13:44:47;3.07;;;1.30;;
5052;SDS011;2545;50.892;5.740;2022-10-16T13:47:16;2.27;;;1.40;;
5052;SDS011;2545;50.892;5.740;2022-10-16T13:49:43;4.60;;;1.00;;
5052;SDS011;2545;50.892;5.740;2022-10-16T13:52:17;5.17;;;1.10;;
5052;SDS011;2545;50.892;5.740;2022-10-16T13:54:44;6.60;;;1.00;;
5052;SDS011;2545;50.892;5.740;2022-10-16T13:57:12;4.13;;;1.23;;
5052;SDS011;2545;50.892;5.740;2022-10-16T13:59:39;2.17;;;1.20;;
5052;SDS011;2545;50.892;5.740;2022-10-16T14:02:17;2.57;;;1.10;;
5052;SDS011;2545;50.892;5.740;2022-10-16T14:04:55;2.47;;;1.37;;
5052;SDS011;2545;50.892;5.740;2022-10-16T14:07:24;1.93;;;1.30;;
5052;SDS011;2545;50.892;5.740;2022-10-16T14:09:54;4.50;;;1.33;;
5052;SDS011;2545;50.892;5.740;2022-10-16T14:12:21;7.40;;;1.63;;
5052;SDS011;2545;50.892;5.740;2022-10-16T14:14:49;7.80;;;1.60;;
5052;SDS011;2545;50.892;5.740;2022-10-16T14:17:18;2.90;;;1.50;;
5052;SDS011;2545;50.892;5.740;2022-10-16T14:19:47;2.30;;;1.20;;
5052;SDS011;2545;50.892;5.740;2022-10-16T14:22:20;4.77;;;1.00;;
5052;SDS011;2545;50.892;5.740;2022-10-16T14:24:52;4.77;;;1.80;;
5052;SDS011;2545;50.892;5.740;2022-10-16T14:27:23;5.53;;;1.73;;
5052;SDS011;2545;50.892;5.740;2022-10-16T14:30:10;3.10;;;1.43;;
5052;SDS011;2545;50.892;5.740;2022-10-16T14:32:40;7.30;;;1.60;;
5052;SDS011;2545;50.892;5.740;2022-10-16T14:35:21;3.00;;;1.20;;
5052;SDS011;2545;50.892;5.740;2022-10-16T14:37:51;2.00;;;1.20;;
5052;SDS011;2545;50.892;5.740;2022-10-16T14:40:17;6.00;;;1.40;;
5052;SDS011;2545;50.892;5.740;2022-10-16T14:42:43;3.23;;;1.30;;
5052;SDS011;2545;50.892;5.740;2022-10-16T14:45:09;6.23;;;1.63;;
5052;SDS011;2545;50.892;5.740;2022-10-16T14:47:36;4.10;;;1.67;;
5052;SDS011;2545;50.892;5.740;2022-10-16T14:50:12;5.17;;;1.40;;
5052;SDS011;2545;50.892;5.740;2022-10-16T14:52:38;4.47;;;1.80;;
5052;SDS011;2545;50.892;5.740;2022-10-16T14:55:03;3.33;;;1.20;;
5052;SDS011;2545;50.892;5.740;2022-10-16T14:57:30;3.73;;;1.10;;
5052;SDS011;2545;50.892;5.740;2022-10-16T14:59:59;3.37;;;1.73;;
5052;SDS011;2545;50.892;5.740;2022-10-16T15:02:27;2.50;;;1.50;;
5052;SDS011;2545;50.892;5.740;2022-10-16T15:04:54;3.50;;;1.60;;
5052;SDS011;2545;50.892;5.740;2022-10-16T15:07:20;2.63;;;1.20;;
5052;SDS011;2545;50.892;5.740;2022-10-16T15:09:46;4.37;;;1.30;;
5052;SDS011;2545;50.892;5.740;2022-10-16T15:12:11;9.33;;;1.80;;
5052;SDS011;2545;50.892;5.740;2022-10-16T15:14:37;9.03;;;1.53;;
5052;SDS011;2545;50.892;5.740;2022-10-16T15:17:02;4.30;;;1.60;;
5052;SDS011;2545;50.892;5.740;2022-10-16T15:19:28;6.20;;;1.40;;
5052;SDS011;2545;50.892;5.740;2022-10-16T15:21:54;9.57;;;1.87;;
5052;SDS011;2545;50.892;5.740;2022-10-16T15:24:19;6.33;;;1.90;;
5052;SDS011;2545;50.892;5.740;2022-10-16T15:26:44;5.07;;;1.53;;
5052;SDS011;2545;50.892;5.740;2022-10-16T15:29:11;7.50;;;1.60;;
5052;SDS011;2545;50.892;5.740;2022-10-16T15:31:37;11.47;;;1.70;;
5052;SDS011;2545;50.892;5.740;2022-10-16T15:34:02;3.57;;;1.60;;
5052;SDS011;2545;50.892;5.740;2022-10-16T15:36:30;4.83;;;1.67;;
5052;SDS011;2545;50.892;5.740;2022-10-16T15:38:58;5.00;;;1.47;;
5052;SDS011;2545;50.892;5.740;2022-10-16T15:41:24;3.53;;;1.33;;
5052;SDS011;2545;50.892;5.740;2022-10-16T15:43:49;8.23;;;2.53;;
5052;SDS011;2545;50.892;5.740;2022-10-16T15:46:17;3.23;;;1.80;;
5052;SDS011;2545;50.892;5.740;2022-10-16T15:48:44;3.10;;;1.50;;
5052;SDS011;2545;50.892;5.740;2022-10-16T15:51:10;2.17;;;1.30;;
5052;SDS011;2545;50.892;5.740;2022-10-16T15:53:35;5.83;;;1.63;;
5052;SDS011;2545;50.892;5.740;2022-10-16T15:56:02;5.93;;;1.53;;
5052;SDS011;2545;50.892;5.740;2022-10-16T15:58:28;5.33;;;2.23;;
5052;SDS011;2545;50.892;5.740;2022-10-16T16:00:55;3.10;;;1.70;;
5052;SDS011;2545;50.892;5.740;2022-10-16T16:03:22;8.53;;;2.17;;
5052;SDS011;2545;50.892;5.740;2022-10-16T16:05:47;3.30;;;1.30;;
5052;SDS011;2545;50.892;5.740;2022-10-16T16:08:13;16.07;;;1.60;;
5052;SDS011;2545;50.892;5.740;2022-10-16T16:10:38;2.80;;;1.70;;
5052;SDS011;2545;50.892;5.740;2022-10-16T16:13:03;2.70;;;1.27;;
5052;SDS011;2545;50.892;5.740;2022-10-16T16:15:29;4.17;;;1.40;;
5052;SDS011;2545;50.892;5.740;2022-10-16T16:17:54;8.50;;;1.90;;
5052;SDS011;2545;50.892;5.740;2022-10-16T16:20:19;3.20;;;1.63;;
5052;SDS011;2545;50.892;5.740;2022-10-16T16:22:45;8.07;;;1.70;;
5052;SDS011;2545;50.892;5.740;2022-10-16T16:25:10;5.90;;;1.63;;
5052;SDS011;2545;50.892;5.740;2022-10-16T16:27:35;3.93;;;1.53;;
5052;SDS011;2545;50.892;5.740;2022-10-16T16:30:03;5.10;;;1.77;;
5052;SDS011;2545;50.892;5.740;2022-10-16T16:32:30;3.47;;;1.60;;
5052;SDS011;2545;50.892;5.740;2022-10-16T16:34:55;2.47;;;1.40;;
5052;SDS011;2545;50.892;5.740;2022-10-16T16:37:20;2.07;;;1.50;;
5052;SDS011;2545;50.892;5.740;2022-10-16T16:39:46;4.20;;;1.63;;
5052;SDS011;2545;50.892;5.740;2022-10-16T16:42:11;3.70;;;1.40;;
5052;SDS011;2545;50.892;5.740;2022-10-16T16:44:37;10.63;;;2.10;;
5052;SDS011;2545;50.892;5.740;2022-10-16T16:47:03;4.97;;;1.60;;
5052;SDS011;2545;50.892;5.740;2022-10-16T16:49:29;2.33;;;1.77;;
5052;SDS011;2545;50.892;5.740;2022-10-16T16:51:54;3.63;;;1.90;;
5052;SDS011;2545;50.892;5.740;2022-10-16T16:54:20;10.20;;;1.73;;
5052;SDS011;2545;50.892;5.740;2022-10-16T16:56:45;2.83;;;1.77;;
5052;SDS011;2545;50.892;5.740;2022-10-16T16:59:14;4.30;;;1.53;;
5052;SDS011;2545;50.892;5.740;2022-10-16T17:01:42;7.30;;;1.97;;
5052;SDS011;2545;50.892;5.740;2022-10-16T17:04:08;7.27;;;1.90;;